createdAt,value
2018-04-08T00:03:12.588Z,1014.4
2018-04-08T00:08:09.921Z,1014.3
2018-04-08T00:13:12.891Z,1014.2
2018-04-08T00:18:10.913Z,1014.2
2018-04-08T00:23:10.769Z,1014.2
2018-04-08T00:28:10.623Z,1014.1
2018-04-08T00:33:17.826Z,1014.1
2018-04-08T00:38:16.722Z,1014.1
2018-04-08T00:43:18.988Z,1014.1
2018-04-08T00:48:18.814Z,1014.1
2018-04-08T00:53:20.791Z,1014
2018-04-08T00:58:17.160Z,1014
2018-04-08T01:03:33.860Z,1013.9
2018-04-08T01:08:34.123Z,1013.9
2018-04-08T01:13:32.305Z,1013.8
2018-04-08T01:18:35.214Z,1013.9
2018-04-08T01:23:36.715Z,1013.8
2018-04-08T01:28:34.730Z,1013.7
2018-04-08T01:33:51.875Z,1013.7
2018-04-08T01:38:52.045Z,1013.7
2018-04-08T01:43:50.800Z,1013.8
2018-04-08T01:48:52.787Z,1013.7
2018-04-08T01:53:53.772Z,1013.6
2018-04-08T01:58:50.710Z,1013.6
2018-04-08T02:03:57.727Z,1013.8
2018-04-08T02:08:56.034Z,1013.7
2018-04-08T02:13:55.962Z,1013.7
2018-04-08T02:19:02.707Z,1013.7
2018-04-08T02:24:03.640Z,1013.6
2018-04-08T02:29:04.641Z,1013.6
2018-04-08T02:34:16.768Z,1013.6
2018-04-08T02:39:17.692Z,1013.5
2018-04-08T02:44:16.716Z,1013.5
2018-04-08T02:49:17.679Z,1013.5
2018-04-08T02:54:16.600Z,1013.4
2018-04-08T02:59:16.631Z,1013.4
2018-04-08T03:04:23.638Z,1013.5
2018-04-08T03:09:22.624Z,1013.6
2018-04-08T03:14:24.611Z,1013.6
2018-04-08T03:19:28.616Z,1013.5
2018-04-08T03:24:28.698Z,1013.6
2018-04-08T03:29:26.565Z,1013.5
2018-04-08T03:34:35.610Z,1013.7
2018-04-08T03:39:36.565Z,1013.7
2018-04-08T03:44:34.544Z,1013.7
2018-04-08T03:49:35.211Z,1013.6
2018-04-08T03:54:36.782Z,1013.6
2018-04-08T03:59:35.464Z,1013.7
2018-04-08T04:04:52.589Z,1013.7
2018-04-08T04:09:49.533Z,1013.7
2018-04-08T04:14:51.535Z,1013.8
2018-04-08T04:19:53.526Z,1013.7
2018-04-08T04:24:55.008Z,1013.7
2018-04-08T04:29:53.468Z,1013.7
2018-04-08T04:35:02.531Z,1013.7
2018-04-08T04:40:04.478Z,1013.8
2018-04-08T04:45:01.464Z,1013.7
2018-04-08T04:50:03.446Z,1013.7
2018-04-08T04:55:00.342Z,1013.7
2018-04-08T05:00:01.367Z,1013.8
2018-04-08T05:05:12.453Z,1013.7
2018-04-08T05:10:15.456Z,1013.7
2018-04-08T05:15:11.520Z,1013.7
2018-04-08T05:20:20.451Z,1013.7
2018-04-08T05:25:17.513Z,1013.6
2018-04-08T05:30:19.368Z,1013.6
2018-04-08T05:35:34.446Z,1013.6
2018-04-08T05:40:32.440Z,1013.6
2018-04-08T05:45:34.436Z,1013.5
2018-04-08T05:50:36.379Z,1013.5
2018-04-08T05:55:33.369Z,1013.4
2018-04-08T06:00:35.370Z,1013.5
2018-04-08T06:05:46.465Z,1013.4
2018-04-08T06:10:46.346Z,1013.4
2018-04-08T06:15:47.393Z,1013.4
2018-04-08T06:20:46.367Z,1013.3
2018-04-08T06:25:47.420Z,1013.2
2018-04-08T06:30:46.301Z,1013.3
2018-04-08T06:36:00.336Z,1013.3
2018-04-08T06:40:59.380Z,1013.1
2018-04-08T06:46:01.362Z,1013.2
2018-04-08T06:51:04.362Z,1013
2018-04-08T06:56:05.327Z,1013
2018-04-08T07:01:06.279Z,1012.8
2018-04-08T07:06:17.295Z,1012.8
2018-04-08T07:11:18.254Z,1012.8
2018-04-08T07:16:18.356Z,1012.6
2018-04-08T07:21:21.363Z,1012.6
2018-04-08T07:26:20.498Z,1012.6
2018-04-08T07:31:22.634Z,1012.6
2018-04-08T07:36:21.503Z,1012.5
2018-04-08T07:41:27.263Z,1012.5
2018-04-08T07:46:27.264Z,1012.4
2018-04-08T07:51:27.435Z,1012.3
2018-04-08T07:56:26.121Z,1012.3
2018-04-08T08:01:28.192Z,1012.1
2018-04-08T08:06:27.943Z,1012.1
2018-04-08T08:11:46.204Z,1012
2018-04-08T08:16:48.267Z,1012
2018-04-08T08:21:47.267Z,1011.8
2018-04-08T08:26:45.483Z,1011.9
2018-04-08T08:31:46.186Z,1011.6
2018-04-08T08:36:48.192Z,1011.6
2018-04-08T08:41:48.114Z,1011.6
2018-04-08T08:46:55.955Z,1011.4
2018-04-08T08:51:56.178Z,1011.5
2018-04-08T08:56:56.114Z,1011.5
2018-04-08T09:01:59.535Z,1011.5
2018-04-08T09:07:00.063Z,1011.4
2018-04-08T09:12:01.126Z,1011.2
2018-04-08T09:17:03.115Z,1011.1
2018-04-08T09:22:13.174Z,1011
2018-04-08T09:27:12.327Z,1011
2018-04-08T09:32:12.111Z,1010.9
2018-04-08T09:37:14.096Z,1010.8
2018-04-08T09:42:14.256Z,1010.7
2018-04-08T09:47:15.993Z,1010.9
2018-04-08T09:52:22.081Z,1010.7
2018-04-08T09:57:22.027Z,1010.7
2018-04-08T10:02:21.357Z,1010.6
2018-04-08T10:07:28.041Z,1010.7
2018-04-08T10:12:26.010Z,1010.7
2018-04-08T10:17:26.568Z,1010.5
2018-04-08T10:22:39.083Z,1010.4
2018-04-08T10:27:39.961Z,1010.4
2018-04-08T10:32:41.004Z,1010.2
2018-04-08T10:37:43.101Z,1010.4
2018-04-08T10:42:44.027Z,1010.3
2018-04-08T10:47:43.463Z,1010.2
2018-04-08T10:52:56.072Z,1010.2
2018-04-08T10:57:54.992Z,1010.1
2018-04-08T11:02:53.993Z,1009.9
2018-04-08T11:07:56.953Z,1009.9
2018-04-08T11:12:52.946Z,1009.8
2018-04-08T11:17:55.884Z,1009.8
2018-04-08T11:23:08.485Z,1009.8
2018-04-08T11:28:07.988Z,1009.6
2018-04-08T11:33:11.945Z,1009.5
2018-04-08T11:38:15.033Z,1009.5
2018-04-08T11:43:12.519Z,1009.6
2018-04-08T11:48:11.930Z,1009.3
2018-04-08T11:53:21.978Z,1009.3
2018-04-08T11:58:20.820Z,1009.2
2018-04-08T12:03:20.924Z,1009.2
2018-04-08T12:08:23.925Z,1009.2
2018-04-08T12:13:22.856Z,1009
2018-04-08T12:18:26.413Z,1009
2018-04-08T12:23:35.414Z,1008.8
2018-04-08T12:28:37.499Z,1008.9
2018-04-08T12:33:33.813Z,1008.8
2018-04-08T12:38:33.997Z,1008.7
2018-04-08T12:43:36.172Z,1008.6
2018-04-08T12:48:35.909Z,1008.6
2018-04-08T12:53:33.773Z,1008.4
2018-04-08T12:58:41.766Z,1008.3
2018-04-08T13:03:44.912Z,1008.4
2018-04-08T13:08:42.712Z,1008.4
2018-04-08T13:13:44.756Z,1008.3
2018-04-08T13:18:44.671Z,1008.3
2018-04-08T13:23:43.698Z,1008.3
2018-04-08T13:28:55.234Z,1008.1
2018-04-08T13:33:55.741Z,1008.1
2018-04-08T13:38:54.986Z,1008
2018-04-08T13:43:53.994Z,1008
2018-04-08T13:48:57.646Z,1007.9
2018-04-08T13:53:57.361Z,1007.8
2018-04-08T13:59:15.762Z,1007.8
2018-04-08T14:04:12.744Z,1007.8
2018-04-08T14:09:15.795Z,1007.9
2018-04-08T14:14:17.705Z,1007.7
2018-04-08T14:19:14.664Z,1007.7
2018-04-08T14:24:13.504Z,1007.6
2018-04-08T14:29:20.682Z,1007.4
2018-04-08T14:34:22.673Z,1007.5
2018-04-08T14:39:28.646Z,1007.3
2018-04-08T14:44:24.905Z,1007.3
2018-04-08T14:49:24.634Z,1007.3
2018-04-08T14:54:25.588Z,1007.2
2018-04-08T14:59:25.496Z,1007.1
2018-04-08T15:04:38.655Z,1007
2018-04-08T15:09:36.764Z,1007
2018-04-08T15:14:38.556Z,1007.1
2018-04-08T15:19:36.625Z,1007
2018-04-08T15:24:38.430Z,1006.9
2018-04-08T15:29:39.464Z,1007
2018-04-08T15:34:40.502Z,1006.9
2018-04-08T15:39:52.586Z,1006.9
2018-04-08T15:44:53.689Z,1006.9
2018-04-08T15:49:54.494Z,1006.8
2018-04-08T15:54:50.376Z,1006.9
2018-04-08T15:59:51.784Z,1006.7
2018-04-08T16:04:50.232Z,1006.8
2018-04-08T16:09:51.595Z,1006.8
2018-04-08T16:15:01.770Z,1006.8
2018-04-08T16:20:02.976Z,1006.8
2018-04-08T16:25:00.336Z,1006.7
2018-04-08T16:30:09.375Z,1006.7
2018-04-08T16:35:08.408Z,1006.6
2018-04-08T16:40:10.412Z,1006.7
2018-04-08T16:45:27.547Z,1006.7
2018-04-08T16:50:24.838Z,1006.7
2018-04-08T16:55:23.230Z,1006.7
2018-04-08T17:00:29.425Z,1006.7
2018-04-08T17:05:30.469Z,1006.6
2018-04-08T17:10:30.197Z,1006.6
2018-04-08T17:15:30.350Z,1006.6
2018-04-08T17:20:39.480Z,1006.6
2018-04-08T17:25:39.318Z,1006.6
2018-04-08T17:30:38.759Z,1006.6
2018-04-08T17:35:40.371Z,1006.8
2018-04-08T17:40:38.713Z,1006.7
2018-04-08T17:45:39.353Z,1006.8
2018-04-08T17:50:56.477Z,1006.9
2018-04-08T17:55:56.846Z,1006.9
2018-04-08T18:00:58.392Z,1007.1
2018-04-08T18:05:58.379Z,1007.1
2018-04-08T18:10:55.406Z,1007
2018-04-08T18:15:55.651Z,1007.1
2018-04-08T18:21:18.507Z,1007.3
2018-04-08T18:26:13.629Z,1007.4
2018-04-08T18:31:12.359Z,1007.5
2018-04-08T18:36:14.392Z,1007.7
2018-04-08T18:41:10.518Z,1007.8
2018-04-08T18:46:13.319Z,1007.8
2018-04-08T18:51:11.553Z,1007.8
2018-04-08T18:56:21.957Z,1007.8
2018-04-08T19:01:20.268Z,1007.9
2018-04-08T19:06:22.080Z,1007.9
2018-04-08T19:11:26.735Z,1008
2018-04-08T19:16:29.284Z,1007.9
2018-04-08T19:21:25.195Z,1008
2018-04-08T19:26:38.924Z,1008.1
2018-04-08T19:31:38.320Z,1008
2018-04-08T19:36:40.305Z,1008.1
2018-04-08T19:41:38.404Z,1008.1
2018-04-08T19:46:43.217Z,1008.1
2018-04-08T19:51:38.876Z,1008.1
2018-04-08T19:56:40.120Z,1008.1
2018-04-08T20:01:47.645Z,1008.2
2018-04-08T20:06:49.156Z,1008.3
2018-04-08T20:11:53.231Z,1008.3
2018-04-08T20:16:53.697Z,1008.3
2018-04-08T20:21:53.618Z,1008.5
2018-04-08T20:26:52.423Z,1008.3
2018-04-08T20:32:05.984Z,1008.3
2018-04-08T20:37:11.230Z,1008.4
2018-04-08T20:42:07.579Z,1008.3
2018-04-08T20:47:06.151Z,1008.3
2018-04-08T20:52:08.153Z,1008.4
2018-04-08T20:57:10.076Z,1008.4
2018-04-08T21:02:25.020Z,1008.4
2018-04-08T21:07:30.390Z,1008.3
2018-04-08T21:12:26.208Z,1008.6
2018-04-08T21:17:27.162Z,1008.6
2018-04-08T21:22:26.166Z,1008.5
2018-04-08T21:27:27.121Z,1008.5
2018-04-08T21:32:36.157Z,1008.6
2018-04-08T21:37:33.135Z,1008.7
2018-04-08T21:42:32.883Z,1008.8
2018-04-08T21:47:35.375Z,1008.8
2018-04-08T21:52:35.079Z,1008.7
2018-04-08T21:57:35.326Z,1008.7
2018-04-08T22:02:43.366Z,1008.7
2018-04-08T22:07:46.054Z,1008.7
2018-04-08T22:12:43.524Z,1008.7
2018-04-08T22:17:48.991Z,1008.7
2018-04-08T22:22:50.662Z,1008.9
2018-04-08T22:27:50.800Z,1008.9
2018-04-08T22:32:57.021Z,1008.9
2018-04-08T22:37:56.497Z,1008.9
2018-04-08T22:43:02.049Z,1008.8
2018-04-08T22:48:02.992Z,1008.9
2018-04-08T22:53:01.326Z,1008.8
2018-04-08T22:58:02.954Z,1008.8
2018-04-08T23:03:09.246Z,1008.8
2018-04-08T23:08:10.227Z,1008.7
2018-04-08T23:13:11.278Z,1009
2018-04-08T23:18:23.055Z,1009
2018-04-08T23:23:22.305Z,1009
2018-04-08T23:28:20.808Z,1009
2018-04-08T23:33:19.870Z,1009
2018-04-08T23:38:29.938Z,1009
2018-04-08T23:43:28.950Z,1009
2018-04-08T23:48:31.958Z,1008.9
2018-04-08T23:53:31.213Z,1008.9
2018-04-08T23:58:33.883Z,1009
